sensor_id;sensor_type;location;lat;lon;timestamp;pressure;altitude;pressure_sealevel;temperature;humidity
61394;BME280;48555;50.952;-0.120;2024-02-23T00:00:36;98249.06;;;8.55;68.46
61394;BME280;48555;50.952;-0.120;2024-02-23T00:03:01;98243.72;;;8.57;68.69
61394;BME280;48555;50.952;-0.120;2024-02-23T00:05:26;98251.84;;;8.54;68.37
61394;BME280;48555;50.952;-0.120;2024-02-23T00:07:52;98258.19;;;8.51;68.31
61394;BME280;48555;50.952;-0.120;2024-02-23T00:10:17;98234.00;;;8.33;68.55
61394;BME280;48555;50.952;-0.120;2024-02-23T00:12:42;98262.56;;;8.51;68.56
61394;BME280;48555;50.952;-0.120;2024-02-23T00:15:09;98258.66;;;8.55;68.61
61394;BME280;48555;50.952;-0.120;2024-02-23T00:17:35;98255.56;;;8.51;68.70
61394;BME280;48555;50.952;-0.120;2024-02-23T00:20:00;98238.59;;;8.39;68.83
61394;BME280;48555;50.952;-0.120;2024-02-23T00:22:26;98261.59;;;8.52;68.92
61394;BME280;48555;50.952;-0.120;2024-02-23T00:24:51;98270.41;;;8.59;69.06
61394;BME280;48555;50.952;-0.120;2024-02-23T00:27:16;98228.13;;;8.31;69.11
61394;BME280;48555;50.952;-0.120;2024-02-23T00:29:42;98236.63;;;8.41;69.38
61394;BME280;48555;50.952;-0.120;2024-02-23T00:32:08;98243.50;;;8.42;69.27
61394;BME280;48555;50.952;-0.120;2024-02-23T00:34:33;98224.78;;;8.47;69.50
61394;BME280;48555;50.952;-0.120;2024-02-23T00:36:58;98185.16;;;8.27;69.29
61394;BME280;48555;50.952;-0.120;2024-02-23T00:39:24;98237.19;;;8.61;69.70
61394;BME280;48555;50.952;-0.120;2024-02-23T00:41:49;98226.31;;;8.66;69.62
61394;BME280;48555;50.952;-0.120;2024-02-23T00:44:15;98193.84;;;8.44;69.67
61394;BME280;48555;50.952;-0.120;2024-02-23T00:46:40;98200.22;;;8.49;69.88
61394;BME280;48555;50.952;-0.120;2024-02-23T00:49:06;98214.88;;;8.58;69.90
61394;BME280;48555;50.952;-0.120;2024-02-23T00:51:32;98215.22;;;8.63;69.85
61394;BME280;48555;50.952;-0.120;2024-02-23T00:53:57;98231.03;;;8.70;69.68
61394;BME280;48555;50.952;-0.120;2024-02-23T00:56:23;98176.22;;;8.37;69.65
61394;BME280;48555;50.952;-0.120;2024-02-23T00:58:48;98186.84;;;8.44;69.62
61394;BME280;48555;50.952;-0.120;2024-02-23T01:01:14;98170.53;;;8.34;69.68
61394;BME280;48555;50.952;-0.120;2024-02-23T01:03:39;98195.03;;;8.57;69.92
61394;BME280;48555;50.952;-0.120;2024-02-23T01:06:05;98191.63;;;8.57;69.62
61394;BME280;48555;50.952;-0.120;2024-02-23T01:08:30;98197.78;;;8.56;69.40
61394;BME280;48555;50.952;-0.120;2024-02-23T01:10:56;98223.88;;;8.72;69.37
61394;BME280;48555;50.952;-0.120;2024-02-23T01:13:22;98191.75;;;8.55;69.23
61394;BME280;48555;50.952;-0.120;2024-02-23T01:15:47;98216.03;;;8.64;69.50
61394;BME280;48555;50.952;-0.120;2024-02-23T01:18:12;98184.09;;;8.46;69.62
61394;BME280;48555;50.952;-0.120;2024-02-23T01:20:38;98193.91;;;8.60;69.27
61394;BME280;48555;50.952;-0.120;2024-02-23T01:23:03;98180.88;;;8.60;69.15
61394;BME280;48555;50.952;-0.120;2024-02-23T01:25:28;98174.03;;;8.51;69.29
61394;BME280;48555;50.952;-0.120;2024-02-23T01:27:54;98156.19;;;8.30;69.40
61394;BME280;48555;50.952;-0.120;2024-02-23T01:30:19;98164.88;;;8.38;69.35
61394;BME280;48555;50.952;-0.120;2024-02-23T01:32:45;98159.34;;;8.41;69.02
61394;BME280;48555;50.952;-0.120;2024-02-23T01:35:11;98148.63;;;8.45;69.30
61394;BME280;48555;50.952;-0.120;2024-02-23T01:37:36;98151.53;;;8.50;69.40
61394;BME280;48555;50.952;-0.120;2024-02-23T01:40:02;98174.53;;;8.62;69.41
61394;BME280;48555;50.952;-0.120;2024-02-23T01:42:27;98144.53;;;8.42;69.64
61394;BME280;48555;50.952;-0.120;2024-02-23T01:44:53;98151.72;;;8.56;69.80
61394;BME280;48555;50.952;-0.120;2024-02-23T01:47:21;98139.34;;;8.42;70.08
61394;BME280;48555;50.952;-0.120;2024-02-23T01:49:46;98135.06;;;8.41;70.24
61394;BME280;48555;50.952;-0.120;2024-02-23T01:52:13;98160.53;;;8.63;70.76
61394;BME280;48555;50.952;-0.120;2024-02-23T01:54:39;98109.88;;;8.41;70.96
61394;BME280;48555;50.952;-0.120;2024-02-23T01:57:05;98147.50;;;8.72;71.23
61394;BME280;48555;50.952;-0.120;2024-02-23T01:59:32;98138.38;;;8.59;71.29
61394;BME280;48555;50.952;-0.120;2024-02-23T02:01:57;98130.72;;;8.66;71.44
61394;BME280;48555;50.952;-0.120;2024-02-23T02:04:23;98139.19;;;8.76;72.00
61394;BME280;48555;50.952;-0.120;2024-02-23T02:06:48;98153.53;;;8.80;72.78
61394;BME280;48555;50.952;-0.120;2024-02-23T02:09:14;98135.13;;;8.82;72.36
61394;BME280;48555;50.952;-0.120;2024-02-23T02:11:48;98118.53;;;8.75;72.22
61394;BME280;48555;50.952;-0.120;2024-02-23T02:14:17;98099.47;;;8.66;72.44
61394;BME280;48555;50.952;-0.120;2024-02-23T02:16:43;98116.91;;;8.74;72.36
61394;BME280;48555;50.952;-0.120;2024-02-23T02:19:11;98100.63;;;8.72;72.10
61394;BME280;48555;50.952;-0.120;2024-02-23T02:21:37;98100.13;;;8.84;72.01
61394;BME280;48555;50.952;-0.120;2024-02-23T02:24:03;98113.63;;;8.88;72.04
61394;BME280;48555;50.952;-0.120;2024-02-23T02:26:30;98072.44;;;8.75;71.79
61394;BME280;48555;50.952;-0.120;2024-02-23T02:28:55;98088.41;;;8.80;72.31
61394;BME280;48555;50.952;-0.120;2024-02-23T02:31:20;98082.53;;;8.78;72.54
61394;BME280;48555;50.952;-0.120;2024-02-23T02:33:47;98073.56;;;8.73;72.77
61394;BME280;48555;50.952;-0.120;2024-02-23T02:36:12;98105.47;;;8.91;73.28
61394;BME280;48555;50.952;-0.120;2024-02-23T02:38:38;98095.38;;;8.88;73.76
61394;BME280;48555;50.952;-0.120;2024-02-23T02:41:04;98122.25;;;8.97;74.38
61394;BME280;48555;50.952;-0.120;2024-02-23T02:43:30;98115.28;;;8.89;74.78
61394;BME280;48555;50.952;-0.120;2024-02-23T02:45:56;98099.97;;;8.94;75.20
61394;BME280;48555;50.952;-0.120;2024-02-23T02:48:22;98074.38;;;8.81;75.12
61394;BME280;48555;50.952;-0.120;2024-02-23T02:50:47;98047.84;;;8.70;74.83
61394;BME280;48555;50.952;-0.120;2024-02-23T02:53:14;98055.34;;;8.73;74.66
61394;BME280;48555;50.952;-0.120;2024-02-23T02:55:41;98054.06;;;8.69;74.56
61394;BME280;48555;50.952;-0.120;2024-02-23T02:58:07;98050.59;;;8.76;74.39
61394;BME280;48555;50.952;-0.120;2024-02-23T03:00:33;98053.72;;;8.80;74.50
61394;BME280;48555;50.952;-0.120;2024-02-23T03:02:58;98054.69;;;8.79;74.31
61394;BME280;48555;50.952;-0.120;2024-02-23T03:05:23;98043.63;;;8.69;74.25
61394;BME280;48555;50.952;-0.120;2024-02-23T03:07:49;98041.34;;;8.66;74.61
61394;BME280;48555;50.952;-0.120;2024-02-23T03:10:14;98057.28;;;8.79;74.28
61394;BME280;48555;50.952;-0.120;2024-02-23T03:12:40;98037.44;;;8.70;74.12
61394;BME280;48555;50.952;-0.120;2024-02-23T03:15:06;98049.00;;;8.75;74.38
61394;BME280;48555;50.952;-0.120;2024-02-23T03:17:32;98046.38;;;8.75;74.38
61394;BME280;48555;50.952;-0.120;2024-02-23T03:19:58;98043.28;;;8.72;73.94
61394;BME280;48555;50.952;-0.120;2024-02-23T03:22:23;98028.16;;;8.67;74.00
61394;BME280;48555;50.952;-0.120;2024-02-23T03:24:49;98039.88;;;8.71;74.25
61394;BME280;48555;50.952;-0.120;2024-02-23T03:27:14;98029.94;;;8.67;74.33
61394;BME280;48555;50.952;-0.120;2024-02-23T03:29:39;98039.72;;;8.73;74.36
61394;BME280;48555;50.952;-0.120;2024-02-23T03:32:05;98019.53;;;8.75;74.51
61394;BME280;48555;50.952;-0.120;2024-02-23T03:34:31;98013.31;;;8.76;74.75
61394;BME280;48555;50.952;-0.120;2024-02-23T03:36:56;98020.00;;;8.86;74.84
61394;BME280;48555;50.952;-0.120;2024-02-23T03:39:23;98031.69;;;8.99;75.13
61394;BME280;48555;50.952;-0.120;2024-02-23T03:41:48;98022.41;;;9.04;74.89
61394;BME280;48555;50.952;-0.120;2024-02-23T03:44:14;98008.09;;;9.00;75.03
61394;BME280;48555;50.952;-0.120;2024-02-23T03:46:39;98005.44;;;9.08;74.83
61394;BME280;48555;50.952;-0.120;2024-02-23T03:49:04;97978.91;;;8.97;75.03
61394;BME280;48555;50.952;-0.120;2024-02-23T03:51:30;97995.03;;;9.00;75.15
61394;BME280;48555;50.952;-0.120;2024-02-23T03:53:57;97991.94;;;8.97;75.16
61394;BME280;48555;50.952;-0.120;2024-02-23T03:56:22;98002.88;;;9.00;75.40
61394;BME280;48555;50.952;-0.120;2024-02-23T03:58:48;97989.19;;;8.90;75.97
61394;BME280;48555;50.952;-0.120;2024-02-23T04:01:13;98000.25;;;9.00;76.10
61394;BME280;48555;50.952;-0.120;2024-02-23T04:03:38;97989.84;;;9.00;76.29
61394;BME280;48555;50.952;-0.120;2024-02-23T04:06:04;97992.72;;;9.05;76.59
61394;BME280;48555;50.952;-0.120;2024-02-23T04:08:30;98002.19;;;9.06;76.56
61394;BME280;48555;50.952;-0.120;2024-02-23T04:10:56;97990.66;;;8.93;76.78
61394;BME280;48555;50.952;-0.120;2024-02-23T04:13:21;97991.81;;;8.90;76.69
61394;BME280;48555;50.952;-0.120;2024-02-23T04:15:47;98000.59;;;8.89;76.78
61394;BME280;48555;50.952;-0.120;2024-02-23T04:18:12;97998.50;;;8.84;76.41
61394;BME280;48555;50.952;-0.120;2024-02-23T04:20:37;97997.03;;;8.82;76.50
61394;BME280;48555;50.952;-0.120;2024-02-23T04:23:03;98005.03;;;8.80;76.05
61394;BME280;48555;50.952;-0.120;2024-02-23T04:25:28;98023.75;;;8.84;75.85
61394;BME280;48555;50.952;-0.120;2024-02-23T04:27:54;98024.41;;;8.78;76.11
61394;BME280;48555;50.952;-0.120;2024-02-23T04:30:19;98017.06;;;8.73;76.30
61394;BME280;48555;50.952;-0.120;2024-02-23T04:32:44;98028.94;;;8.76;76.32
61394;BME280;48555;50.952;-0.120;2024-02-23T04:35:10;98040.38;;;8.83;76.33
61394;BME280;48555;50.952;-0.120;2024-02-23T04:37:35;98009.59;;;8.70;76.07
61394;BME280;48555;50.952;-0.120;2024-02-23T04:40:01;98035.97;;;8.83;75.87
61394;BME280;48555;50.952;-0.120;2024-02-23T04:42:26;98048.00;;;8.84;75.66
61394;BME280;48555;50.952;-0.120;2024-02-23T04:44:52;98048.66;;;8.78;75.59
61394;BME280;48555;50.952;-0.120;2024-02-23T04:47:20;98047.84;;;8.78;75.31
61394;BME280;48555;50.952;-0.120;2024-02-23T04:49:45;98054.69;;;8.79;75.10
61394;BME280;48555;50.952;-0.120;2024-02-23T04:52:11;98062.34;;;8.72;74.81
61394;BME280;48555;50.952;-0.120;2024-02-23T04:54:36;98054.22;;;8.59;74.79
61394;BME280;48555;50.952;-0.120;2024-02-23T04:57:01;98055.34;;;8.56;75.00
61394;BME280;48555;50.952;-0.120;2024-02-23T04:59:27;98058.63;;;8.50;74.66
61394;BME280;48555;50.952;-0.120;2024-02-23T05:01:53;98069.00;;;8.58;74.69
61394;BME280;48555;50.952;-0.120;2024-02-23T05:04:18;98058.94;;;8.47;74.56
61394;BME280;48555;50.952;-0.120;2024-02-23T05:06:43;98064.78;;;8.49;74.14
61394;BME280;48555;50.952;-0.120;2024-02-23T05:09:09;98068.69;;;8.45;74.28
61394;BME280;48555;50.952;-0.120;2024-02-23T05:11:35;98065.06;;;8.38;74.23
61394;BME280;48555;50.952;-0.120;2024-02-23T05:14:00;98079.25;;;8.44;74.22
61394;BME280;48555;50.952;-0.120;2024-02-23T05:16:26;98071.25;;;8.37;74.45
61394;BME280;48555;50.952;-0.120;2024-02-23T05:18:51;98080.91;;;8.45;74.23
61394;BME280;48555;50.952;-0.120;2024-02-23T05:21:16;98071.13;;;8.38;74.10
61394;BME280;48555;50.952;-0.120;2024-02-23T05:23:42;98083.66;;;8.43;74.08
61394;BME280;48555;50.952;-0.120;2024-02-23T05:26:08;98082.66;;;8.36;74.20
61394;BME280;48555;50.952;-0.120;2024-02-23T05:28:33;98078.09;;;8.30;73.98
61394;BME280;48555;50.952;-0.120;2024-02-23T05:30:58;98074.00;;;8.19;74.27
61394;BME280;48555;50.952;-0.120;2024-02-23T05:33:24;98068.78;;;8.11;74.08
61394;BME280;48555;50.952;-0.120;2024-02-23T05:35:49;98076.13;;;8.15;74.07
61394;BME280;48555;50.952;-0.120;2024-02-23T05:38:15;98079.03;;;8.12;73.78
61394;BME280;48555;50.952;-0.120;2024-02-23T05:40:40;98065.19;;;8.04;73.86
61394;BME280;48555;50.952;-0.120;2024-02-23T05:43:06;98069.59;;;8.03;73.70
61394;BME280;48555;50.952;-0.120;2024-02-23T05:45:31;98080.00;;;8.11;73.34
61394;BME280;48555;50.952;-0.120;2024-02-23T05:47:57;98095.16;;;8.16;73.46
61394;BME280;48555;50.952;-0.120;2024-02-23T05:50:22;98093.66;;;8.13;73.44
61394;BME280;48555;50.952;-0.120;2024-02-23T05:52:47;98055.41;;;7.89;73.10
61394;BME280;48555;50.952;-0.120;2024-02-23T05:55:13;98102.16;;;8.15;73.37
61394;BME280;48555;50.952;-0.120;2024-02-23T05:57:38;98081.44;;;8.06;73.11
61394;BME280;48555;50.952;-0.120;2024-02-23T06:00:04;98081.44;;;8.06;73.32
61394;BME280;48555;50.952;-0.120;2024-02-23T06:02:30;98066.28;;;7.93;73.22
61394;BME280;48555;50.952;-0.120;2024-02-23T06:04:55;98101.44;;;8.05;73.48
61394;BME280;48555;50.952;-0.120;2024-02-23T06:07:21;98093.94;;;7.94;73.31
61394;BME280;48555;50.952;-0.120;2024-02-23T06:09:52;98105.84;;;8.05;73.50
61394;BME280;48555;50.952;-0.120;2024-02-23T06:12:17;98099.13;;;7.94;73.63
61394;BME280;48555;50.952;-0.120;2024-02-23T06:14:43;98083.03;;;7.90;73.38
61394;BME280;48555;50.952;-0.120;2024-02-23T06:17:08;98103.25;;;8.05;73.62
61394;BME280;48555;50.952;-0.120;2024-02-23T06:19:33;98100.81;;;8.03;73.64
61394;BME280;48555;50.952;-0.120;2024-02-23T06:21:59;98078.63;;;7.91;73.47
61394;BME280;48555;50.952;-0.120;2024-02-23T06:24:24;98080.91;;;7.94;73.58
61394;BME280;48555;50.952;-0.120;2024-02-23T06:26:49;98103.41;;;8.03;73.70
61394;BME280;48555;50.952;-0.120;2024-02-23T06:29:16;98105.69;;;7.98;73.44
61394;BME280;48555;50.952;-0.120;2024-02-23T06:31:41;98123.25;;;8.04;73.73
61394;BME280;48555;50.952;-0.120;2024-02-23T06:34:08;98121.47;;;8.05;73.74
61394;BME280;48555;50.952;-0.120;2024-02-23T06:36:33;98090.97;;;7.81;73.48
61394;BME280;48555;50.952;-0.120;2024-02-23T06:38:59;98123.41;;;8.03;73.40
61394;BME280;48555;50.952;-0.120;2024-02-23T06:41:24;98117.22;;;7.95;73.49
61394;BME280;48555;50.952;-0.120;2024-02-23T06:43:49;98116.09;;;7.98;73.33
61394;BME280;48555;50.952;-0.120;2024-02-23T06:46:19;98110.22;;;7.96;73.41
61394;BME280;48555;50.952;-0.120;2024-02-23T06:48:45;98126.84;;;8.03;73.39
61394;BME280;48555;50.952;-0.120;2024-02-23T06:51:11;98110.84;;;7.90;73.49
61394;BME280;48555;50.952;-0.120;2024-02-23T06:53:36;98131.84;;;7.96;73.64
61394;BME280;48555;50.952;-0.120;2024-02-23T06:56:03;98110.97;;;7.80;73.86
61394;BME280;48555;50.952;-0.120;2024-02-23T06:58:28;98126.94;;;7.85;73.78
61394;BME280;48555;50.952;-0.120;2024-02-23T07:00:54;98108.38;;;7.80;73.99
61394;BME280;48555;50.952;-0.120;2024-02-23T07:03:19;98130.34;;;7.94;74.04
61394;BME280;48555;50.952;-0.120;2024-02-23T07:05:45;98139.81;;;7.95;74.17
61394;BME280;48555;50.952;-0.120;2024-02-23T07:08:11;98137.03;;;7.88;74.08
61394;BME280;48555;50.952;-0.120;2024-02-23T07:10:36;98138.97;;;7.86;74.13
61394;BME280;48555;50.952;-0.120;2024-02-23T07:13:02;98153.47;;;7.89;74.18
61394;BME280;48555;50.952;-0.120;2024-02-23T07:15:27;98162.56;;;7.93;74.14
61394;BME280;48555;50.952;-0.120;2024-02-23T07:17:53;98150.84;;;7.89;74.26
61394;BME280;48555;50.952;-0.120;2024-02-23T07:20:18;98130.19;;;7.87;74.21
61394;BME280;48555;50.952;-0.120;2024-02-23T07:22:47;98151.38;;;8.01;74.36
61394;BME280;48555;50.952;-0.120;2024-02-23T07:25:16;98131.66;;;7.90;74.18
61394;BME280;48555;50.952;-0.120;2024-02-23T07:27:42;98142.59;;;8.02;74.19
61394;BME280;48555;50.952;-0.120;2024-02-23T07:30:07;98152.88;;;8.11;74.11
61394;BME280;48555;50.952;-0.120;2024-02-23T07:32:33;98168.38;;;8.29;74.28
61394;BME280;48555;50.952;-0.120;2024-02-23T07:34:58;98142.69;;;8.34;74.16
61394;BME280;48555;50.952;-0.120;2024-02-23T07:37:26;98150.28;;;8.62;74.13
61394;BME280;48555;50.952;-0.120;2024-02-23T07:39:52;98149.94;;;8.81;74.27
61394;BME280;48555;50.952;-0.120;2024-02-23T07:42:17;98150.44;;;9.09;74.08
61394;BME280;48555;50.952;-0.120;2024-02-23T07:44:44;98164.50;;;9.72;73.67
61394;BME280;48555;50.952;-0.120;2024-02-23T07:47:10;98156.31;;;10.23;72.82
61394;BME280;48555;50.952;-0.120;2024-02-23T07:49:36;98122.78;;;10.43;71.79
61394;BME280;48555;50.952;-0.120;2024-02-23T07:52:02;98124.00;;;10.78;70.55
61394;BME280;48555;50.952;-0.120;2024-02-23T07:54:27;98151.16;;;11.15;69.68
61394;BME280;48555;50.952;-0.120;2024-02-23T07:56:52;98157.22;;;11.30;68.60
61394;BME280;48555;50.952;-0.120;2024-02-23T07:59:18;98149.31;;;11.39;67.54
61394;BME280;48555;50.952;-0.120;2024-02-23T08:01:43;98152.75;;;11.54;67.23
61394;BME280;48555;50.952;-0.120;2024-02-23T08:04:08;98146.16;;;11.58;66.48
61394;BME280;48555;50.952;-0.120;2024-02-23T08:06:34;98155.03;;;11.87;65.97
61394;BME280;48555;50.952;-0.120;2024-02-23T08:08:59;98130.34;;;12.11;65.42
61394;BME280;48555;50.952;-0.120;2024-02-23T08:11:25;98175.69;;;12.84;63.71
61394;BME280;48555;50.952;-0.120;2024-02-23T08:13:50;98154.91;;;13.04;62.88
61394;BME280;48555;50.952;-0.120;2024-02-23T08:16:16;98157.56;;;13.32;61.73
61394;BME280;48555;50.952;-0.120;2024-02-23T08:18:42;98159.75;;;13.56;61.08
61394;BME280;48555;50.952;-0.120;2024-02-23T08:21:09;98148.78;;;13.81;60.60
61394;BME280;48555;50.952;-0.120;2024-02-23T08:23:36;98168.13;;;14.15;59.68
61394;BME280;48555;50.952;-0.120;2024-02-23T08:26:01;98176.84;;;14.15;59.72
61394;BME280;48555;50.952;-0.120;2024-02-23T08:28:26;98173.38;;;14.08;58.93
61394;BME280;48555;50.952;-0.120;2024-02-23T08:30:52;98173.31;;;13.95;58.66
61394;BME280;48555;50.952;-0.120;2024-02-23T08:33:18;98142.81;;;13.59;58.46
61394;BME280;48555;50.952;-0.120;2024-02-23T08:35:43;98178.34;;;13.61;58.54
61394;BME280;48555;50.952;-0.120;2024-02-23T08:38:10;98182.28;;;13.44;58.85
61394;BME280;48555;50.952;-0.120;2024-02-23T08:40:36;98151.91;;;13.07;58.93
61394;BME280;48555;50.952;-0.120;2024-02-23T08:43:01;98171.19;;;12.99;59.57
61394;BME280;48555;50.952;-0.120;2024-02-23T08:45:27;98180.81;;;12.92;59.78
61394;BME280;48555;50.952;-0.120;2024-02-23T08:47:52;98167.09;;;12.68;60.05
61394;BME280;48555;50.952;-0.120;2024-02-23T08:50:17;98199.16;;;12.70;60.32
61394;BME280;48555;50.952;-0.120;2024-02-23T08:52:43;98192.63;;;12.45;60.66
61394;BME280;48555;50.952;-0.120;2024-02-23T08:55:08;98164.25;;;12.12;60.73
61394;BME280;48555;50.952;-0.120;2024-02-23T08:57:34;98171.91;;;11.99;61.00
61394;BME280;48555;50.952;-0.120;2024-02-23T08:59:59;98185.38;;;11.96;61.67
61394;BME280;48555;50.952;-0.120;2024-02-23T09:02:25;98189.81;;;11.95;62.05
61394;BME280;48555;50.952;-0.120;2024-02-23T09:04:51;98195.56;;;12.05;62.63
61394;BME280;48555;50.952;-0.120;2024-02-23T09:07:16;98216.78;;;12.25;63.34
61394;BME280;48555;50.952;-0.120;2024-02-23T09:09:45;98216.16;;;12.23;63.56
61394;BME280;48555;50.952;-0.120;2024-02-23T09:12:11;98182.03;;;12.02;63.42
61394;BME280;48555;50.952;-0.120;2024-02-23T09:14:36;98216.34;;;12.22;63.56
61394;BME280;48555;50.952;-0.120;2024-02-23T09:17:04;98164.50;;;11.88;63.80
61394;BME280;48555;50.952;-0.120;2024-02-23T09:19:31;98196.91;;;12.16;63.80
61394;BME280;48555;50.952;-0.120;2024-02-23T09:21:56;98192.84;;;12.14;64.22
61394;BME280;48555;50.952;-0.120;2024-02-23T09:24:21;98205.50;;;12.25;64.14
61394;BME280;48555;50.952;-0.120;2024-02-23T09:26:47;98199.25;;;12.26;64.21
61394;BME280;48555;50.952;-0.120;2024-02-23T09:29:13;98224.78;;;12.54;64.28
61394;BME280;48555;50.952;-0.120;2024-02-23T09:31:38;98224.75;;;12.68;64.32
61394;BME280;48555;50.952;-0.120;2024-02-23T09:34:03;98242.44;;;12.81;64.57
61394;BME280;48555;50.952;-0.120;2024-02-23T09:36:29;98237.03;;;12.83;64.32
61394;BME280;48555;50.952;-0.120;2024-02-23T09:38:55;98248.31;;;12.83;63.95
61394;BME280;48555;50.952;-0.120;2024-02-23T09:41:22;98247.03;;;12.79;63.51
61394;BME280;48555;50.952;-0.120;2024-02-23T09:43:48;98245.38;;;12.71;63.68
61394;BME280;48555;50.952;-0.120;2024-02-23T09:46:15;98243.22;;;12.60;63.17
61394;BME280;48555;50.952;-0.120;2024-02-23T09:48:44;98252.63;;;12.55;62.77
61394;BME280;48555;50.952;-0.120;2024-02-23T09:51:10;98244.06;;;12.46;62.69
61394;BME280;48555;50.952;-0.120;2024-02-23T09:53:37;98247.03;;;12.43;63.07
61394;BME280;48555;50.952;-0.120;2024-02-23T09:56:03;98239.81;;;12.45;63.15
61394;BME280;48555;50.952;-0.120;2024-02-23T09:58:30;98241.78;;;12.43;63.09
61394;BME280;48555;50.952;-0.120;2024-02-23T10:01:00;98238.09;;;12.37;62.89
61394;BME280;48555;50.952;-0.120;2024-02-23T10:03:27;98231.59;;;12.33;62.78
61394;BME280;48555;50.952;-0.120;2024-02-23T10:05:55;98232.34;;;12.27;62.79
61394;BME280;48555;50.952;-0.120;2024-02-23T10:08:21;98227.47;;;12.24;62.72
61394;BME280;48555;50.952;-0.120;2024-02-23T10:10:46;98231.25;;;12.21;63.03
61394;BME280;48555;50.952;-0.120;2024-02-23T10:13:20;98224.50;;;12.12;63.17
61394;BME280;48555;50.952;-0.120;2024-02-23T10:15:47;98242.81;;;12.12;63.00
61394;BME280;48555;50.952;-0.120;2024-02-23T10:18:13;98249.03;;;12.11;63.23
61394;BME280;48555;50.952;-0.120;2024-02-23T10:20:38;98242.09;;;12.03;63.16
61394;BME280;48555;50.952;-0.120;2024-02-23T10:23:04;98242.81;;;11.97;63.30
61394;BME280;48555;50.952;-0.120;2024-02-23T10:25:30;98242.81;;;11.97;62.95
61394;BME280;48555;50.952;-0.120;2024-02-23T10:27:55;98244.81;;;11.95;63.28
61394;BME280;48555;50.952;-0.120;2024-02-23T10:30:20;98249.84;;;11.97;63.84
61394;BME280;48555;50.952;-0.120;2024-02-23T10:32:46;98249.97;;;12.03;64.09
61394;BME280;48555;50.952;-0.120;2024-02-23T10:35:15;98248.78;;;12.06;64.26
61394;BME280;48555;50.952;-0.120;2024-02-23T10:37:42;98258.91;;;12.09;64.00
61394;BME280;48555;50.952;-0.120;2024-02-23T10:40:11;98260.06;;;12.07;64.01
61394;BME280;48555;50.952;-0.120;2024-02-23T10:42:38;98261.03;;;12.05;63.90
61394;BME280;48555;50.952;-0.120;2024-02-23T10:45:05;98266.66;;;12.02;63.72
61394;BME280;48555;50.952;-0.120;2024-02-23T10:47:30;98264.59;;;11.98;63.88
61394;BME280;48555;50.952;-0.120;2024-02-23T10:50:00;98266.75;;;11.94;63.64
61394;BME280;48555;50.952;-0.120;2024-02-23T10:52:26;98272.06;;;11.86;63.46
61394;BME280;48555;50.952;-0.120;2024-02-23T10:54:52;98269.13;;;11.81;63.34
61394;BME280;48555;50.952;-0.120;2024-02-23T10:57:18;98264.91;;;11.80;63.28
61394;BME280;48555;50.952;-0.120;2024-02-23T10:59:47;98261.91;;;11.83;63.50
61394;BME280;48555;50.952;-0.120;2024-02-23T11:02:14;98262.22;;;11.88;63.68
61394;BME280;48555;50.952;-0.120;2024-02-23T11:04:46;98263.28;;;11.94;63.97
61394;BME280;48555;50.952;-0.120;2024-02-23T11:07:16;98257.34;;;12.00;63.79
61394;BME280;48555;50.952;-0.120;2024-02-23T11:09:51;98261.53;;;12.09;63.62
61394;BME280;48555;50.952;-0.120;2024-02-23T11:12:29;98262.78;;;12.13;63.52
61394;BME280;48555;50.952;-0.120;2024-02-23T11:14:58;98259.63;;;12.18;63.27
61394;BME280;48555;50.952;-0.120;2024-02-23T11:17:26;98255.56;;;12.15;63.23
61394;BME280;48555;50.952;-0.120;2024-02-23T11:19:54;98252.22;;;12.21;63.28
61394;BME280;48555;50.952;-0.120;2024-02-23T11:22:27;98253.81;;;12.22;63.33
61394;BME280;48555;50.952;-0.120;2024-02-23T11:25:08;98265.22;;;12.30;63.31
61394;BME280;48555;50.952;-0.120;2024-02-23T11:27:35;98263.84;;;12.34;63.40
61394;BME280;48555;50.952;-0.120;2024-02-23T11:30:10;98259.63;;;12.33;63.24
61394;BME280;48555;50.952;-0.120;2024-02-23T11:32:37;98269.53;;;12.37;62.97
61394;BME280;48555;50.952;-0.120;2024-02-23T11:35:07;98262.69;;;12.36;62.87
61394;BME280;48555;50.952;-0.120;2024-02-23T11:37:32;98260.06;;;12.36;62.54
61394;BME280;48555;50.952;-0.120;2024-02-23T11:40:00;98264.50;;;12.36;62.12
61394;BME280;48555;50.952;-0.120;2024-02-23T11:42:27;98259.25;;;12.36;62.45
61394;BME280;48555;50.952;-0.120;2024-02-23T11:44:52;98256.16;;;12.32;62.41
61394;BME280;48555;50.952;-0.120;2024-02-23T11:47:19;98259.25;;;12.36;62.37
61394;BME280;48555;50.952;-0.120;2024-02-23T11:49:44;98258.25;;;12.37;62.44
61394;BME280;48555;50.952;-0.120;2024-02-23T11:52:09;98260.59;;;12.32;62.83
61394;BME280;48555;50.952;-0.120;2024-02-23T11:54:35;98256.28;;;12.24;62.95
61394;BME280;48555;50.952;-0.120;2024-02-23T11:57:00;98261.31;;;12.25;63.08
61394;BME280;48555;50.952;-0.120;2024-02-23T11:59:26;98254.84;;;12.21;63.14
61394;BME280;48555;50.952;-0.120;2024-02-23T12:01:51;98257.44;;;12.21;63.07
61394;BME280;48555;50.952;-0.120;2024-02-23T12:04:16;98258.63;;;12.19;63.30
61394;BME280;48555;50.952;-0.120;2024-02-23T12:06:42;98255.00;;;12.20;62.76
61394;BME280;48555;50.952;-0.120;2024-02-23T12:09:08;98259.88;;;12.23;62.80
61394;BME280;48555;50.952;-0.120;2024-02-23T12:11:34;98253.31;;;12.27;62.87
61394;BME280;48555;50.952;-0.120;2024-02-23T12:14:00;98258.34;;;12.28;62.84
61394;BME280;48555;50.952;-0.120;2024-02-23T12:16:27;98246.63;;;12.24;62.48
61394;BME280;48555;50.952;-0.120;2024-02-23T12:18:54;98252.13;;;12.30;62.80
61394;BME280;48555;50.952;-0.120;2024-02-23T12:21:20;98246.03;;;12.29;62.63
61394;BME280;48555;50.952;-0.120;2024-02-23T12:23:48;98250.69;;;12.27;63.21
61394;BME280;48555;50.952;-0.120;2024-02-23T12:26:15;98250.84;;;12.25;62.95
61394;BME280;48555;50.952;-0.120;2024-02-23T12:28:41;98240.56;;;12.24;63.25
61394;BME280;48555;50.952;-0.120;2024-02-23T12:31:06;98246.41;;;12.26;63.04
61394;BME280;48555;50.952;-0.120;2024-02-23T12:33:36;98241.19;;;12.26;63.09
61394;BME280;48555;50.952;-0.120;2024-02-23T12:36:04;98247.41;;;12.25;62.94
61394;BME280;48555;50.952;-0.120;2024-02-23T12:38:29;98244.72;;;12.18;62.56
61394;BME280;48555;50.952;-0.120;2024-02-23T12:40:55;98241.53;;;12.08;62.25
61394;BME280;48555;50.952;-0.120;2024-02-23T12:43:21;98243.91;;;12.03;62.32
61394;BME280;48555;50.952;-0.120;2024-02-23T12:45:49;98240.28;;;12.04;62.24
61394;BME280;48555;50.952;-0.120;2024-02-23T12:48:18;98246.53;;;12.03;62.65